createdAt,value
2023-03-21T00:01:03.850Z,4.93
2023-03-21T00:06:11.690Z,4.53
2023-03-21T00:11:14.412Z,4.43
2023-03-21T00:16:21.406Z,4.70
2023-03-21T00:21:46.508Z,5.40
2023-03-21T00:26:53.977Z,5.80
2023-03-21T00:37:01.560Z,4.65
2023-03-21T00:42:03.918Z,4.30
2023-03-21T00:47:08.199Z,5.15
2023-03-21T00:52:30.570Z,5.60
2023-03-21T00:57:39.005Z,5.95
2023-03-21T01:03:02.528Z,6.78
2023-03-21T01:08:20.638Z,4.95
2023-03-21T01:13:25.918Z,5.15
2023-03-21T01:18:29.979Z,6.47
2023-03-21T01:23:31.671Z,5.97
2023-03-21T01:28:34.382Z,6.22
2023-03-21T01:38:38.089Z,5.75
2023-03-21T01:43:40.713Z,5.10
2023-03-21T01:48:44.297Z,5.20
2023-03-21T01:53:47.482Z,5.80
2023-03-21T01:58:50.944Z,5.45
2023-03-21T02:04:04.968Z,5.95
2023-03-21T02:09:31.826Z,5.43
2023-03-21T02:14:36.088Z,5.40
2023-03-21T02:20:17.621Z,5.40
2023-03-21T02:25:22.080Z,5.03
2023-03-21T02:30:56.408Z,5.22
2023-03-21T02:36:34.128Z,4.90
2023-03-21T02:41:40.634Z,4.95
2023-03-21T02:46:51.236Z,5.32
2023-03-21T02:52:08.737Z,4.97
2023-03-21T02:57:19.286Z,5.00
2023-03-21T03:02:26.212Z,4.97
2023-03-21T03:07:52.273Z,4.97
2023-03-21T03:13:09.325Z,5.32
2023-03-21T03:18:18.748Z,4.82
2023-03-21T03:23:30.614Z,4.85
2023-03-21T03:28:38.040Z,5.03
2023-03-21T03:33:48.238Z,5.23
2023-03-21T03:38:51.662Z,5.10
2023-03-21T03:43:57.869Z,5.30
2023-03-21T03:49:10.196Z,4.75
2023-03-21T03:54:21.079Z,4.57
2023-03-21T03:59:25.122Z,4.85
2023-03-21T04:04:38.247Z,4.90
2023-03-21T04:09:44.826Z,4.85
2023-03-21T04:14:49.995Z,5.38
2023-03-21T04:19:59.969Z,5.55
2023-03-21T04:25:08.025Z,4.97
2023-03-21T04:30:12.118Z,5.15
2023-03-21T04:35:37.754Z,4.85
2023-03-21T04:40:40.509Z,4.82
2023-03-21T04:45:42.792Z,5.00
2023-03-21T04:50:44.850Z,4.97
2023-03-21T04:55:46.778Z,5.23
2023-03-21T05:00:48.508Z,4.90
2023-03-21T05:05:50.808Z,5.90
2023-03-21T05:10:53.966Z,4.80
2023-03-21T05:15:56.592Z,4.90
2023-03-21T05:20:58.413Z,4.80
2023-03-21T05:26:00.976Z,5.75
2023-03-21T05:31:16.792Z,5.55
2023-03-21T05:36:20.541Z,4.68
2023-03-21T05:41:22.581Z,5.53
2023-03-21T05:46:24.673Z,4.97
2023-03-21T05:51:26.846Z,5.33
2023-03-21T05:56:28.623Z,5.60
2023-03-21T06:01:39.662Z,4.68
2023-03-21T06:06:46.956Z,4.97
2023-03-21T06:11:52.087Z,4.97
2023-03-21T06:17:02.555Z,5.13
2023-03-21T06:22:06.036Z,5.20
2023-03-21T06:27:11.295Z,5.00
2023-03-21T06:37:32.244Z,5.45
2023-03-21T06:42:34.205Z,5.25
2023-03-21T06:47:43.263Z,5.40
2023-03-21T06:52:54.668Z,4.90
2023-03-21T06:57:57.486Z,5.28
2023-03-21T07:03:02.265Z,6.30
2023-03-21T07:08:06.180Z,7.35
2023-03-21T07:13:10.448Z,6.28
2023-03-21T07:18:17.528Z,5.40
2023-03-21T07:23:25.220Z,5.13
2023-03-21T07:28:31.901Z,5.82
2023-03-21T07:33:34.059Z,5.82
2023-03-21T07:38:36.471Z,5.60
2023-03-21T07:43:39.427Z,6.73
2023-03-21T07:48:44.553Z,7.13
2023-03-21T07:53:48.678Z,7.65
2023-03-21T07:58:50.832Z,7.93
2023-03-21T08:03:53.692Z,8.07
2023-03-21T08:14:01.535Z,7.82
2023-03-21T08:19:03.474Z,7.65
2023-03-21T08:24:07.065Z,7.97
2023-03-21T08:29:09.105Z,8.05
2023-03-21T08:34:10.905Z,8.37
2023-03-21T08:39:12.797Z,8.73
2023-03-21T08:44:17.315Z,8.02
2023-03-21T08:49:20.053Z,8.25
2023-03-21T08:54:22.672Z,8.90
2023-03-21T08:59:24.313Z,8.45
2023-03-21T09:04:26.191Z,6.90
2023-03-21T09:09:29.021Z,6.40
2023-03-21T09:19:32.507Z,6.97
2023-03-21T09:24:34.434Z,6.43
2023-03-21T09:29:36.460Z,6.87
2023-03-21T09:34:41.170Z,6.47
2023-03-21T09:39:44.794Z,5.90
2023-03-21T09:45:17.790Z,3.70
2023-03-21T09:50:27.219Z,5.43
2023-03-21T09:55:36.641Z,5.63
2023-03-21T10:00:46.507Z,5.72
2023-03-21T10:05:49.024Z,5.90
2023-03-21T10:10:59.364Z,5.35
2023-03-21T10:16:10.896Z,4.88
2023-03-21T10:21:47.413Z,4.90
2023-03-21T10:26:44.787Z,4.82
2023-03-21T10:31:47.350Z,5.30
2023-03-21T10:36:49.399Z,4.85
2023-03-21T10:41:51.343Z,4.57
2023-03-21T10:46:58.882Z,4.57
2023-03-21T10:52:08.823Z,4.80
2023-03-21T10:57:21.740Z,4.80
2023-03-21T11:02:35.960Z,4.20
2023-03-21T11:07:38.059Z,4.85
2023-03-21T11:12:41.425Z,5.30
2023-03-21T11:17:45.320Z,4.22
2023-03-21T11:22:48.611Z,5.97
2023-03-21T11:27:53.790Z,4.28
2023-03-21T11:32:58.140Z,4.47
2023-03-21T11:38:00.014Z,5.13
2023-03-21T11:43:24.862Z,4.63
2023-03-21T11:48:27.546Z,4.82
2023-03-21T11:53:40.467Z,4.20
2023-03-21T11:59:13.571Z,3.63
2023-03-21T12:09:37.329Z,4.60
2023-03-21T12:14:59.258Z,4.65
2023-03-21T12:20:30.365Z,4.20
2023-03-21T12:25:42.616Z,4.47
2023-03-21T12:31:05.893Z,5.07
2023-03-21T12:41:49.132Z,4.78
2023-03-21T12:46:58.253Z,4.80
2023-03-21T12:52:06.508Z,4.72
2023-03-21T12:57:23.327Z,5.07
2023-03-21T13:02:31.623Z,4.80
2023-03-21T13:07:38.097Z,5.03
2023-03-21T13:13:00.828Z,4.82
2023-03-21T13:18:21.054Z,4.93
2023-03-21T13:23:25.275Z,4.60
2023-03-21T13:28:35.720Z,4.75
2023-03-21T13:33:44.566Z,5.30
2023-03-21T13:38:51.681Z,4.95
2023-03-21T13:43:55.844Z,5.03
2023-03-21T13:49:00.697Z,4.70
2023-03-21T13:54:08.253Z,5.00
2023-03-21T13:59:11.191Z,4.68
2023-03-21T14:04:24.149Z,4.72
2023-03-21T14:09:41.712Z,5.20
2023-03-21T14:14:51.201Z,5.40
2023-03-21T14:19:54.931Z,4.90
2023-03-21T14:24:59.767Z,5.32
2023-03-21T14:30:03.280Z,5.22
2023-03-21T14:35:11.680Z,5.45
2023-03-21T14:40:22.607Z,5.20
2023-03-21T14:45:27.926Z,5.22
2023-03-21T14:50:49.060Z,5.18
2023-03-21T14:56:01.995Z,5.15
2023-03-21T15:11:13.050Z,5.75
2023-03-21T15:16:15.313Z,4.57
2023-03-21T15:21:24.694Z,4.30
2023-03-21T15:26:27.301Z,5.03
2023-03-21T15:31:34.264Z,4.85
2023-03-21T15:36:43.754Z,5.00
2023-03-21T15:42:23.307Z,5.63
2023-03-21T15:48:02.330Z,4.10
2023-03-21T15:53:16.085Z,4.88
2023-03-21T15:58:23.936Z,4.90
2023-03-21T16:03:27.237Z,4.72
2023-03-21T16:08:36.890Z,4.28
2023-03-21T16:13:38.806Z,4.75
2023-03-21T16:18:40.452Z,4.63
2023-03-21T16:23:42.248Z,4.95
2023-03-21T16:28:47.165Z,4.95
2023-03-21T16:33:49.080Z,4.55
2023-03-21T16:38:55.128Z,4.67
2023-03-21T16:43:56.796Z,4.50
2023-03-21T16:48:58.740Z,4.85
2023-03-21T16:54:01.115Z,4.57
2023-03-21T16:59:03.234Z,5.05
2023-03-21T17:04:08.595Z,4.93
2023-03-21T17:09:13.290Z,4.80
2023-03-21T17:14:21.057Z,2.20
2023-03-21T17:19:27.870Z,2.13
2023-03-21T17:24:29.713Z,1.98
2023-03-21T17:29:31.570Z,2.53
2023-03-21T17:34:33.649Z,2.70
2023-03-21T17:39:35.577Z,1.90
2023-03-21T17:44:37.230Z,1.60
2023-03-21T17:49:39.173Z,1.60
2023-03-21T17:54:41.577Z,1.88
2023-03-21T17:59:43.580Z,1.92
2023-03-21T18:04:45.450Z,2.03
2023-03-21T18:09:47.343Z,1.83
2023-03-21T18:14:49.486Z,1.92
2023-03-21T18:19:51.283Z,1.80
2023-03-21T18:24:53.473Z,2.13
2023-03-21T18:30:25.692Z,1.98
2023-03-21T18:35:19.723Z,1.70
2023-03-21T18:40:24.043Z,1.73
2023-03-21T18:45:26.696Z,1.85
2023-03-21T18:50:28.562Z,1.70
2023-03-21T18:55:45.083Z,1.70
2023-03-21T19:00:50.098Z,1.70
2023-03-21T19:05:51.956Z,1.83
2023-03-21T19:10:54.020Z,1.80
2023-03-21T19:15:56.315Z,2.00
2023-03-21T19:21:00.805Z,2.67
2023-03-21T19:26:02.709Z,2.22
2023-03-21T19:31:06.135Z,1.98
2023-03-21T19:36:17.913Z,2.28
2023-03-21T19:41:23.332Z,2.10
2023-03-21T19:46:26.382Z,2.33
2023-03-21T19:51:30.015Z,2.63
2023-03-21T19:56:34.577Z,2.55
2023-03-21T20:01:36.923Z,2.80
2023-03-21T20:06:38.996Z,2.50
2023-03-21T20:11:40.790Z,2.35
2023-03-21T20:16:43.727Z,2.55
2023-03-21T20:21:53.084Z,2.70
2023-03-21T20:26:58.281Z,2.53
2023-03-21T20:32:00.061Z,2.90
2023-03-21T20:37:03.170Z,2.22
2023-03-21T20:42:05.533Z,2.90
2023-03-21T20:47:08.263Z,2.75
2023-03-21T20:57:32.600Z,3.55
2023-03-21T21:02:34.473Z,2.78
2023-03-21T21:07:36.076Z,2.83
2023-03-21T21:12:39.437Z,2.65
2023-03-21T21:23:04.458Z,2.60
2023-03-21T21:28:09.441Z,2.55
2023-03-21T21:33:11.415Z,2.85
2023-03-21T21:38:19.213Z,3.20
2023-03-21T21:43:21.187Z,3.35
2023-03-21T21:48:23.406Z,3.60
2023-03-21T21:53:28.174Z,4.35
2023-03-21T21:58:33.783Z,4.30
2023-03-21T22:03:41.642Z,3.75
2023-03-21T22:08:46.852Z,3.90
2023-03-21T22:13:49.043Z,3.90
2023-03-21T22:18:50.748Z,4.00
2023-03-21T22:23:52.418Z,4.00
2023-03-21T22:28:54.109Z,3.78
2023-03-21T22:33:55.985Z,3.88
2023-03-21T22:38:57.994Z,4.50
2023-03-21T22:43:59.749Z,4.38
2023-03-21T22:49:01.893Z,4.53
2023-03-21T22:54:03.768Z,5.60
2023-03-21T22:59:05.628Z,5.45
2023-03-21T23:04:07.579Z,5.40
2023-03-21T23:09:10.125Z,5.93
2023-03-21T23:14:15.144Z,6.03
2023-03-21T23:19:17.382Z,5.55
2023-03-21T23:24:19.109Z,7.03
2023-03-21T23:29:20.885Z,6.57
2023-03-21T23:34:22.680Z,6.93
2023-03-21T23:39:24.521Z,5.72
2023-03-21T23:44:27.399Z,5.80
2023-03-21T23:49:33.309Z,5.57
2023-03-21T23:54:35.181Z,5.15
2023-03-21T23:59:36.884Z,4.95
